sensor_id;sensor_type;location;lat;lon;timestamp;temperature;humidity
22161;DHT22;49035;48.812;11.762;2023-05-07T00:00:33;8.50;99.90
22161;DHT22;49035;48.812;11.762;2023-05-07T00:02:59;8.30;99.90
22161;DHT22;49035;48.812;11.762;2023-05-07T00:05:25;8.40;99.90
22161;DHT22;49035;48.812;11.762;2023-05-07T00:07:52;8.20;99.90
22161;DHT22;49035;48.812;11.762;2023-05-07T00:10:18;8.00;99.90
22161;DHT22;49035;48.812;11.762;2023-05-07T00:12:44;8.00;99.90
22161;DHT22;49035;48.812;11.762;2023-05-07T00:15:10;8.00;99.90
22161;DHT22;49035;48.812;11.762;2023-05-07T00:17:36;8.00;99.90
22161;DHT22;49035;48.812;11.762;2023-05-07T00:20:03;7.90;99.90
22161;DHT22;49035;48.812;11.762;2023-05-07T00:22:30;8.00;99.90
22161;DHT22;49035;48.812;11.762;2023-05-07T00:24:56;8.20;99.90
22161;DHT22;49035;48.812;11.762;2023-05-07T00:27:22;8.20;99.90
22161;DHT22;49035;48.812;11.762;2023-05-07T00:29:48;8.20;99.90
22161;DHT22;49035;48.812;11.762;2023-05-07T00:32:13;8.10;99.90
22161;DHT22;49035;48.812;11.762;2023-05-07T00:34:40;8.10;99.90
22161;DHT22;49035;48.812;11.762;2023-05-07T00:37:06;8.00;99.90
22161;DHT22;49035;48.812;11.762;2023-05-07T00:39:33;7.90;99.90
22161;DHT22;49035;48.812;11.762;2023-05-07T00:41:59;7.90;99.90
22161;DHT22;49035;48.812;11.762;2023-05-07T00:44:26;7.80;99.90
22161;DHT22;49035;48.812;11.762;2023-05-07T00:46:52;7.80;99.90
22161;DHT22;49035;48.812;11.762;2023-05-07T00:49:18;7.90;99.90
22161;DHT22;49035;48.812;11.762;2023-05-07T00:51:45;7.80;99.90
22161;DHT22;49035;48.812;11.762;2023-05-07T00:54:10;7.70;99.90
22161;DHT22;49035;48.812;11.762;2023-05-07T00:56:36;7.60;99.90
22161;DHT22;49035;48.812;11.762;2023-05-07T00:59:03;7.50;99.90
22161;DHT22;49035;48.812;11.762;2023-05-07T01:01:29;7.50;99.90
22161;DHT22;49035;48.812;11.762;2023-05-07T01:03:55;7.60;99.90
22161;DHT22;49035;48.812;11.762;2023-05-07T01:06:21;7.60;99.90
22161;DHT22;49035;48.812;11.762;2023-05-07T01:08:48;7.60;99.90
22161;DHT22;49035;48.812;11.762;2023-05-07T01:11:16;7.60;99.90
22161;DHT22;49035;48.812;11.762;2023-05-07T01:13:42;7.60;99.90
22161;DHT22;49035;48.812;11.762;2023-05-07T01:16:09;7.40;99.90
22161;DHT22;49035;48.812;11.762;2023-05-07T01:18:35;7.30;99.90
22161;DHT22;49035;48.812;11.762;2023-05-07T01:21:02;7.20;99.90
22161;DHT22;49035;48.812;11.762;2023-05-07T01:23:30;7.20;99.90
22161;DHT22;49035;48.812;11.762;2023-05-07T01:25:56;7.30;99.90
22161;DHT22;49035;48.812;11.762;2023-05-07T01:28:21;7.40;99.90
22161;DHT22;49035;48.812;11.762;2023-05-07T01:30:52;7.70;99.90
22161;DHT22;49035;48.812;11.762;2023-05-07T01:33:20;8.30;99.90
22161;DHT22;49035;48.812;11.762;2023-05-07T01:35:52;8.50;99.90
22161;DHT22;49035;48.812;11.762;2023-05-07T01:38:19;8.50;99.90
22161;DHT22;49035;48.812;11.762;2023-05-07T01:40:46;8.50;99.90
22161;DHT22;49035;48.812;11.762;2023-05-07T01:43:12;8.40;99.90
22161;DHT22;49035;48.812;11.762;2023-05-07T01:45:38;8.30;99.90
22161;DHT22;49035;48.812;11.762;2023-05-07T01:48:05;8.20;99.90
22161;DHT22;49035;48.812;11.762;2023-05-07T01:50:32;8.20;99.90
22161;DHT22;49035;48.812;11.762;2023-05-07T01:52:59;8.00;99.90
22161;DHT22;49035;48.812;11.762;2023-05-07T01:55:25;7.80;99.90
22161;DHT22;49035;48.812;11.762;2023-05-07T01:57:50;7.70;99.90
22161;DHT22;49035;48.812;11.762;2023-05-07T02:00:16;7.70;99.90
22161;DHT22;49035;48.812;11.762;2023-05-07T02:02:43;7.70;99.90
22161;DHT22;49035;48.812;11.762;2023-05-07T02:05:08;7.60;99.90
22161;DHT22;49035;48.812;11.762;2023-05-07T02:07:34;7.60;99.90
22161;DHT22;49035;48.812;11.762;2023-05-07T02:10:00;7.60;99.90
22161;DHT22;49035;48.812;11.762;2023-05-07T02:12:25;7.50;99.90
22161;DHT22;49035;48.812;11.762;2023-05-07T02:14:51;7.50;99.90
22161;DHT22;49035;48.812;11.762;2023-05-07T02:17:16;7.50;99.90
22161;DHT22;49035;48.812;11.762;2023-05-07T02:19:42;7.40;99.90
22161;DHT22;49035;48.812;11.762;2023-05-07T02:22:09;7.40;99.90
22161;DHT22;49035;48.812;11.762;2023-05-07T02:24:34;7.50;99.90
22161;DHT22;49035;48.812;11.762;2023-05-07T02:27:00;7.50;99.90
22161;DHT22;49035;48.812;11.762;2023-05-07T02:29:25;7.40;99.90
22161;DHT22;49035;48.812;11.762;2023-05-07T02:31:51;7.40;99.90
22161;DHT22;49035;48.812;11.762;2023-05-07T02:34:18;7.30;99.90
22161;DHT22;49035;48.812;11.762;2023-05-07T02:36:44;7.20;99.90
22161;DHT22;49035;48.812;11.762;2023-05-07T02:39:12;7.20;99.90
22161;DHT22;49035;48.812;11.762;2023-05-07T02:41:37;7.20;99.90
22161;DHT22;49035;48.812;11.762;2023-05-07T02:44:03;7.30;99.90
22161;DHT22;49035;48.812;11.762;2023-05-07T02:46:29;7.30;99.90
22161;DHT22;49035;48.812;11.762;2023-05-07T02:48:54;7.30;99.90
22161;DHT22;49035;48.812;11.762;2023-05-07T02:51:21;7.20;99.90
22161;DHT22;49035;48.812;11.762;2023-05-07T02:53:47;7.10;99.90
22161;DHT22;49035;48.812;11.762;2023-05-07T02:56:13;7.00;99.90
22161;DHT22;49035;48.812;11.762;2023-05-07T02:58:38;6.90;99.90
22161;DHT22;49035;48.812;11.762;2023-05-07T03:01:08;6.80;99.90
22161;DHT22;49035;48.812;11.762;2023-05-07T03:03:34;6.80;99.90
22161;DHT22;49035;48.812;11.762;2023-05-07T03:06:00;6.70;99.90
22161;DHT22;49035;48.812;11.762;2023-05-07T03:08:25;6.70;99.90
22161;DHT22;49035;48.812;11.762;2023-05-07T03:10:51;6.60;99.90
22161;DHT22;49035;48.812;11.762;2023-05-07T03:13:16;6.60;99.90
22161;DHT22;49035;48.812;11.762;2023-05-07T03:15:42;6.60;99.90
22161;DHT22;49035;48.812;11.762;2023-05-07T03:18:08;6.70;99.90
22161;DHT22;49035;48.812;11.762;2023-05-07T03:20:33;6.80;99.90
22161;DHT22;49035;48.812;11.762;2023-05-07T03:22:59;7.00;99.90
22161;DHT22;49035;48.812;11.762;2023-05-07T03:25:25;7.20;99.90
22161;DHT22;49035;48.812;11.762;2023-05-07T03:27:51;7.30;99.90
22161;DHT22;49035;48.812;11.762;2023-05-07T03:30:16;7.20;99.90
22161;DHT22;49035;48.812;11.762;2023-05-07T03:32:42;7.10;99.90
22161;DHT22;49035;48.812;11.762;2023-05-07T03:35:07;7.00;99.90
22161;DHT22;49035;48.812;11.762;2023-05-07T03:37:33;7.20;99.90
22161;DHT22;49035;48.812;11.762;2023-05-07T03:39:59;7.20;99.90
22161;DHT22;49035;48.812;11.762;2023-05-07T03:42:25;7.20;99.90
22161;DHT22;49035;48.812;11.762;2023-05-07T03:44:50;7.20;99.90
22161;DHT22;49035;48.812;11.762;2023-05-07T03:47:16;7.20;99.90
22161;DHT22;49035;48.812;11.762;2023-05-07T03:49:41;7.00;99.90
22161;DHT22;49035;48.812;11.762;2023-05-07T03:52:07;7.00;99.90
22161;DHT22;49035;48.812;11.762;2023-05-07T03:54:32;7.00;99.90
22161;DHT22;49035;48.812;11.762;2023-05-07T03:56:58;7.00;99.90
22161;DHT22;49035;48.812;11.762;2023-05-07T03:59:24;6.90;99.90
22161;DHT22;49035;48.812;11.762;2023-05-07T04:01:49;6.90;99.90
22161;DHT22;49035;48.812;11.762;2023-05-07T04:04:15;7.00;99.90
22161;DHT22;49035;48.812;11.762;2023-05-07T04:06:41;7.00;99.90
22161;DHT22;49035;48.812;11.762;2023-05-07T04:09:07;7.20;99.90
22161;DHT22;49035;48.812;11.762;2023-05-07T04:11:32;7.30;99.90
22161;DHT22;49035;48.812;11.762;2023-05-07T04:13:58;7.40;99.90
22161;DHT22;49035;48.812;11.762;2023-05-07T04:16:24;7.60;99.90
22161;DHT22;49035;48.812;11.762;2023-05-07T04:18:49;7.80;99.90
22161;DHT22;49035;48.812;11.762;2023-05-07T04:21:20;8.10;99.90
22161;DHT22;49035;48.812;11.762;2023-05-07T04:23:47;8.20;99.90
22161;DHT22;49035;48.812;11.762;2023-05-07T04:26:13;8.30;99.90
22161;DHT22;49035;48.812;11.762;2023-05-07T04:28:39;8.30;99.90
22161;DHT22;49035;48.812;11.762;2023-05-07T04:31:05;8.40;99.90
22161;DHT22;49035;48.812;11.762;2023-05-07T04:33:31;8.40;99.90
22161;DHT22;49035;48.812;11.762;2023-05-07T04:35:58;8.50;99.90
22161;DHT22;49035;48.812;11.762;2023-05-07T04:38:30;8.50;99.90
22161;DHT22;49035;48.812;11.762;2023-05-07T04:40:57;8.70;99.90
22161;DHT22;49035;48.812;11.762;2023-05-07T04:43:22;8.80;99.90
22161;DHT22;49035;48.812;11.762;2023-05-07T04:45:50;8.90;99.90
22161;DHT22;49035;48.812;11.762;2023-05-07T04:48:16;9.10;99.90
22161;DHT22;49035;48.812;11.762;2023-05-07T04:50:46;9.30;99.90
22161;DHT22;49035;48.812;11.762;2023-05-07T04:53:12;9.50;99.90
22161;DHT22;49035;48.812;11.762;2023-05-07T04:55:37;9.60;99.90
22161;DHT22;49035;48.812;11.762;2023-05-07T04:58:03;9.70;99.90
22161;DHT22;49035;48.812;11.762;2023-05-07T05:00:30;9.80;99.90
22161;DHT22;49035;48.812;11.762;2023-05-07T05:02:55;10.00;99.90
22161;DHT22;49035;48.812;11.762;2023-05-07T05:05:21;10.20;99.90
22161;DHT22;49035;48.812;11.762;2023-05-07T05:07:47;10.30;99.90
22161;DHT22;49035;48.812;11.762;2023-05-07T05:10:12;10.50;99.90
22161;DHT22;49035;48.812;11.762;2023-05-07T05:12:38;10.70;99.90
22161;DHT22;49035;48.812;11.762;2023-05-07T05:15:04;10.70;99.90
22161;DHT22;49035;48.812;11.762;2023-05-07T05:17:30;10.80;99.90
22161;DHT22;49035;48.812;11.762;2023-05-07T05:19:56;10.80;99.90
22161;DHT22;49035;48.812;11.762;2023-05-07T05:22:21;11.00;99.90
22161;DHT22;49035;48.812;11.762;2023-05-07T05:24:47;11.20;99.90
22161;DHT22;49035;48.812;11.762;2023-05-07T05:27:12;11.60;99.90
22161;DHT22;49035;48.812;11.762;2023-05-07T05:29:38;11.90;99.90
22161;DHT22;49035;48.812;11.762;2023-05-07T05:32:04;12.40;99.90
22161;DHT22;49035;48.812;11.762;2023-05-07T05:34:29;13.00;99.90
22161;DHT22;49035;48.812;11.762;2023-05-07T05:36:55;13.20;99.90
22161;DHT22;49035;48.812;11.762;2023-05-07T05:39:20;13.10;99.90
22161;DHT22;49035;48.812;11.762;2023-05-07T05:41:48;13.10;99.90
22161;DHT22;49035;48.812;11.762;2023-05-07T05:44:13;13.10;99.90
22161;DHT22;49035;48.812;11.762;2023-05-07T05:46:39;13.20;99.90
22161;DHT22;49035;48.812;11.762;2023-05-07T05:49:05;13.30;99.90
22161;DHT22;49035;48.812;11.762;2023-05-07T05:51:30;14.00;99.90
22161;DHT22;49035;48.812;11.762;2023-05-07T05:53:56;15.00;99.90
22161;DHT22;49035;48.812;11.762;2023-05-07T05:56:22;15.80;99.90
22161;DHT22;49035;48.812;11.762;2023-05-07T05:58:47;16.50;99.90
22161;DHT22;49035;48.812;11.762;2023-05-07T06:01:13;17.00;99.90
22161;DHT22;49035;48.812;11.762;2023-05-07T06:03:38;17.60;99.90
22161;DHT22;49035;48.812;11.762;2023-05-07T06:06:04;17.80;99.90
22161;DHT22;49035;48.812;11.762;2023-05-07T06:08:29;18.10;99.90
22161;DHT22;49035;48.812;11.762;2023-05-07T06:10:55;18.10;99.90
22161;DHT22;49035;48.812;11.762;2023-05-07T06:13:21;18.40;99.90
22161;DHT22;49035;48.812;11.762;2023-05-07T06:15:48;18.40;99.90
22161;DHT22;49035;48.812;11.762;2023-05-07T06:18:14;18.50;99.90
22161;DHT22;49035;48.812;11.762;2023-05-07T06:20:39;18.40;99.90
22161;DHT22;49035;48.812;11.762;2023-05-07T06:23:05;18.80;99.90
22161;DHT22;49035;48.812;11.762;2023-05-07T06:25:30;19.40;99.90
22161;DHT22;49035;48.812;11.762;2023-05-07T06:27:56;19.60;99.90
22161;DHT22;49035;48.812;11.762;2023-05-07T06:30:22;19.90;99.90
22161;DHT22;49035;48.812;11.762;2023-05-07T06:32:47;20.10;99.90
22161;DHT22;49035;48.812;11.762;2023-05-07T06:35:13;20.10;99.90
22161;DHT22;49035;48.812;11.762;2023-05-07T06:37:38;20.20;99.90
22161;DHT22;49035;48.812;11.762;2023-05-07T06:40:05;20.30;95.50
22161;DHT22;49035;48.812;11.762;2023-05-07T06:42:32;19.70;94.90
22161;DHT22;49035;48.812;11.762;2023-05-07T06:44:57;19.20;96.90
22161;DHT22;49035;48.812;11.762;2023-05-07T06:47:23;19.10;98.10
22161;DHT22;49035;48.812;11.762;2023-05-07T06:49:48;19.20;97.70
22161;DHT22;49035;48.812;11.762;2023-05-07T06:52:14;19.30;96.50
22161;DHT22;49035;48.812;11.762;2023-05-07T06:54:40;19.30;97.00
22161;DHT22;49035;48.812;11.762;2023-05-07T06:57:05;19.30;99.30
22161;DHT22;49035;48.812;11.762;2023-05-07T06:59:31;19.70;97.40
22161;DHT22;49035;48.812;11.762;2023-05-07T07:01:56;20.30;95.80
22161;DHT22;49035;48.812;11.762;2023-05-07T07:04:22;20.20;96.50
22161;DHT22;49035;48.812;11.762;2023-05-07T07:06:49;20.30;96.70
22161;DHT22;49035;48.812;11.762;2023-05-07T07:09:14;20.20;94.60
22161;DHT22;49035;48.812;11.762;2023-05-07T07:11:40;20.60;96.40
22161;DHT22;49035;48.812;11.762;2023-05-07T07:14:06;20.50;92.10
22161;DHT22;49035;48.812;11.762;2023-05-07T07:16:31;20.10;94.50
22161;DHT22;49035;48.812;11.762;2023-05-07T07:18:57;19.60;95.30
22161;DHT22;49035;48.812;11.762;2023-05-07T07:21:23;19.30;95.20
22161;DHT22;49035;48.812;11.762;2023-05-07T07:23:48;19.00;97.50
22161;DHT22;49035;48.812;11.762;2023-05-07T07:26:14;19.00;99.30
22161;DHT22;49035;48.812;11.762;2023-05-07T07:28:43;18.90;99.60
22161;DHT22;49035;48.812;11.762;2023-05-07T07:31:09;19.30;99.00
22161;DHT22;49035;48.812;11.762;2023-05-07T07:33:35;20.10;97.70
22161;DHT22;49035;48.812;11.762;2023-05-07T07:36:00;20.60;94.30
22161;DHT22;49035;48.812;11.762;2023-05-07T07:38:26;20.70;93.10
22161;DHT22;49035;48.812;11.762;2023-05-07T07:40:52;20.40;95.30
22161;DHT22;49035;48.812;11.762;2023-05-07T07:43:17;20.20;95.80
22161;DHT22;49035;48.812;11.762;2023-05-07T07:45:43;20.10;98.10
22161;DHT22;49035;48.812;11.762;2023-05-07T07:48:09;20.50;98.00
22161;DHT22;49035;48.812;11.762;2023-05-07T07:50:35;20.80;97.20
22161;DHT22;49035;48.812;11.762;2023-05-07T07:53:01;21.50;94.20
22161;DHT22;49035;48.812;11.762;2023-05-07T07:55:27;21.50;93.40
22161;DHT22;49035;48.812;11.762;2023-05-07T07:57:53;21.60;92.10
22161;DHT22;49035;48.812;11.762;2023-05-07T08:00:18;21.60;93.20
22161;DHT22;49035;48.812;11.762;2023-05-07T08:02:44;22.20;92.70
22161;DHT22;49035;48.812;11.762;2023-05-07T08:05:10;22.70;90.90
22161;DHT22;49035;48.812;11.762;2023-05-07T08:07:35;23.10;89.20
22161;DHT22;49035;48.812;11.762;2023-05-07T08:10:01;23.80;84.80
22161;DHT22;49035;48.812;11.762;2023-05-07T08:12:27;24.00;85.40
22161;DHT22;49035;48.812;11.762;2023-05-07T08:14:53;23.90;80.20
22161;DHT22;49035;48.812;11.762;2023-05-07T08:17:21;23.70;84.90
22161;DHT22;49035;48.812;11.762;2023-05-07T08:19:48;23.60;81.00
22161;DHT22;49035;48.812;11.762;2023-05-07T08:22:13;22.80;83.50
22161;DHT22;49035;48.812;11.762;2023-05-07T08:24:39;22.20;87.20
22161;DHT22;49035;48.812;11.762;2023-05-07T08:27:05;22.40;89.10
22161;DHT22;49035;48.812;11.762;2023-05-07T08:29:31;22.30;89.70
22161;DHT22;49035;48.812;11.762;2023-05-07T08:31:56;22.50;90.60
22161;DHT22;49035;48.812;11.762;2023-05-07T08:34:22;22.80;85.20
22161;DHT22;49035;48.812;11.762;2023-05-07T08:36:48;22.80;87.80
22161;DHT22;49035;48.812;11.762;2023-05-07T08:39:15;22.80;88.10
22161;DHT22;49035;48.812;11.762;2023-05-07T08:41:45;22.50;86.20
22161;DHT22;49035;48.812;11.762;2023-05-07T08:44:13;22.50;87.60
22161;DHT22;49035;48.812;11.762;2023-05-07T08:46:39;22.80;91.30
22161;DHT22;49035;48.812;11.762;2023-05-07T08:49:07;22.80;86.80
22161;DHT22;49035;48.812;11.762;2023-05-07T08:51:33;22.80;89.90
22161;DHT22;49035;48.812;11.762;2023-05-07T08:53:59;23.10;86.00
22161;DHT22;49035;48.812;11.762;2023-05-07T08:56:26;23.30;90.10
22161;DHT22;49035;48.812;11.762;2023-05-07T08:58:52;23.40;87.70
22161;DHT22;49035;48.812;11.762;2023-05-07T09:01:22;23.20;85.60
22161;DHT22;49035;48.812;11.762;2023-05-07T09:03:47;23.40;86.90
22161;DHT22;49035;48.812;11.762;2023-05-07T09:06:13;23.30;83.60
22161;DHT22;49035;48.812;11.762;2023-05-07T09:08:39;23.20;85.20
22161;DHT22;49035;48.812;11.762;2023-05-07T09:11:05;22.90;85.90
22161;DHT22;49035;48.812;11.762;2023-05-07T09:13:30;22.50;84.80
22161;DHT22;49035;48.812;11.762;2023-05-07T09:15:56;22.50;88.90
22161;DHT22;49035;48.812;11.762;2023-05-07T09:18:24;22.50;89.90
22161;DHT22;49035;48.812;11.762;2023-05-07T09:20:50;22.50;88.40
22161;DHT22;49035;48.812;11.762;2023-05-07T09:23:16;22.60;90.40
22161;DHT22;49035;48.812;11.762;2023-05-07T09:25:42;23.10;90.40
22161;DHT22;49035;48.812;11.762;2023-05-07T09:28:07;23.30;90.50
22161;DHT22;49035;48.812;11.762;2023-05-07T09:30:35;23.10;87.60
22161;DHT22;49035;48.812;11.762;2023-05-07T09:33:03;23.40;90.00
22161;DHT22;49035;48.812;11.762;2023-05-07T09:35:30;23.60;84.60
22161;DHT22;49035;48.812;11.762;2023-05-07T09:37:57;23.20;83.60
22161;DHT22;49035;48.812;11.762;2023-05-07T09:40:25;22.70;86.60
22161;DHT22;49035;48.812;11.762;2023-05-07T09:42:51;22.60;87.70
22161;DHT22;49035;48.812;11.762;2023-05-07T09:45:27;22.30;87.90
22161;DHT22;49035;48.812;11.762;2023-05-07T09:47:57;22.70;91.90
22161;DHT22;49035;48.812;11.762;2023-05-07T09:50:34;22.70;88.70
22161;DHT22;49035;48.812;11.762;2023-05-07T09:53:01;22.70;89.60
22161;DHT22;49035;48.812;11.762;2023-05-07T09:55:28;22.50;89.30
22161;DHT22;49035;48.812;11.762;2023-05-07T09:57:55;22.60;89.50
22161;DHT22;49035;48.812;11.762;2023-05-07T10:00:21;23.00;83.90
22161;DHT22;49035;48.812;11.762;2023-05-07T10:02:52;22.90;90.10
22161;DHT22;49035;48.812;11.762;2023-05-07T10:05:18;22.90;85.40
22161;DHT22;49035;48.812;11.762;2023-05-07T10:07:46;22.80;85.00
22161;DHT22;49035;48.812;11.762;2023-05-07T10:10:12;22.90;85.50
22161;DHT22;49035;48.812;11.762;2023-05-07T10:12:40;23.10;86.40
22161;DHT22;49035;48.812;11.762;2023-05-07T10:15:07;23.30;85.50
22161;DHT22;49035;48.812;11.762;2023-05-07T10:17:36;23.80;88.40
22161;DHT22;49035;48.812;11.762;2023-05-07T10:20:02;24.30;85.10
22161;DHT22;49035;48.812;11.762;2023-05-07T10:22:33;24.80;83.90
22161;DHT22;49035;48.812;11.762;2023-05-07T10:25:06;25.30;76.00
22161;DHT22;49035;48.812;11.762;2023-05-07T10:27:34;24.90;72.00
22161;DHT22;49035;48.812;11.762;2023-05-07T10:32:57;24.60;75.50
22161;DHT22;49035;48.812;11.762;2023-05-07T10:35:32;24.20;75.40
22161;DHT22;49035;48.812;11.762;2023-05-07T10:38:01;23.90;76.70
22161;DHT22;49035;48.812;11.762;2023-05-07T10:40:27;23.70;79.50
22161;DHT22;49035;48.812;11.762;2023-05-07T10:42:57;24.00;85.50
22161;DHT22;49035;48.812;11.762;2023-05-07T10:45:24;24.20;71.40
22161;DHT22;49035;48.812;11.762;2023-05-07T10:48:06;24.10;80.80
22161;DHT22;49035;48.812;11.762;2023-05-07T10:50:32;24.30;77.60
22161;DHT22;49035;48.812;11.762;2023-05-07T10:55:43;24.50;74.00
22161;DHT22;49035;48.812;11.762;2023-05-07T11:00:47;24.70;71.30
22161;DHT22;49035;48.812;11.762;2023-05-07T11:03:13;25.30;74.40
22161;DHT22;49035;48.812;11.762;2023-05-07T11:05:41;25.50;68.60
22161;DHT22;49035;48.812;11.762;2023-05-07T11:08:07;24.70;67.70
22161;DHT22;49035;48.812;11.762;2023-05-07T11:10:54;24.50;71.10
22161;DHT22;49035;48.812;11.762;2023-05-07T11:16:20;24.30;73.40
22161;DHT22;49035;48.812;11.762;2023-05-07T11:18:53;24.10;75.80
22161;DHT22;49035;48.812;11.762;2023-05-07T11:21:38;24.20;75.60
22161;DHT22;49035;48.812;11.762;2023-05-07T11:24:06;24.20;75.40
22161;DHT22;49035;48.812;11.762;2023-05-07T11:26:43;24.10;70.50
22161;DHT22;49035;48.812;11.762;2023-05-07T11:29:21;23.10;71.40
22161;DHT22;49035;48.812;11.762;2023-05-07T11:31:54;22.50;75.10
22161;DHT22;49035;48.812;11.762;2023-05-07T11:34:24;22.90;82.70
22161;DHT22;49035;48.812;11.762;2023-05-07T11:36:50;23.60;75.70
22161;DHT22;49035;48.812;11.762;2023-05-07T11:39:27;23.90;71.30
22161;DHT22;49035;48.812;11.762;2023-05-07T11:41:53;24.50;75.30
22161;DHT22;49035;48.812;11.762;2023-05-07T11:44:18;24.40;66.80
22161;DHT22;49035;48.812;11.762;2023-05-07T11:46:44;23.90;72.80
22161;DHT22;49035;48.812;11.762;2023-05-07T11:49:10;23.90;75.50
22161;DHT22;49035;48.812;11.762;2023-05-07T11:51:36;24.10;71.90
22161;DHT22;49035;48.812;11.762;2023-05-07T11:54:03;24.20;71.20
22161;DHT22;49035;48.812;11.762;2023-05-07T11:56:34;24.40;70.10
22161;DHT22;49035;48.812;11.762;2023-05-07T11:59:00;24.30;66.70
22161;DHT22;49035;48.812;11.762;2023-05-07T12:01:26;24.60;67.00
22161;DHT22;49035;48.812;11.762;2023-05-07T12:03:51;24.90;67.40
22161;DHT22;49035;48.812;11.762;2023-05-07T12:06:18;25.20;66.90
22161;DHT22;49035;48.812;11.762;2023-05-07T12:08:44;25.00;68.00
22161;DHT22;49035;48.812;11.762;2023-05-07T12:11:23;25.10;67.60
22161;DHT22;49035;48.812;11.762;2023-05-07T12:13:49;25.00;70.30
22161;DHT22;49035;48.812;11.762;2023-05-07T12:16:14;24.70;68.50
22161;DHT22;49035;48.812;11.762;2023-05-07T12:18:40;25.10;69.30
22161;DHT22;49035;48.812;11.762;2023-05-07T12:21:07;25.60;63.80
22161;DHT22;49035;48.812;11.762;2023-05-07T12:23:34;25.80;64.20
22161;DHT22;49035;48.812;11.762;2023-05-07T12:26:01;25.50;61.60
22161;DHT22;49035;48.812;11.762;2023-05-07T12:28:26;25.80;69.20
22161;DHT22;49035;48.812;11.762;2023-05-07T12:30:52;26.20;69.00
22161;DHT22;49035;48.812;11.762;2023-05-07T12:33:20;26.20;64.30
22161;DHT22;49035;48.812;11.762;2023-05-07T12:35:48;26.00;66.80
22161;DHT22;49035;48.812;11.762;2023-05-07T12:38:17;25.80;64.90
22161;DHT22;49035;48.812;11.762;2023-05-07T12:40:47;26.00;65.40
22161;DHT22;49035;48.812;11.762;2023-05-07T12:43:20;26.00;63.60
22161;DHT22;49035;48.812;11.762;2023-05-07T12:45:50;25.50;64.00
22161;DHT22;49035;48.812;11.762;2023-05-07T12:48:16;25.30;63.30
22161;DHT22;49035;48.812;11.762;2023-05-07T12:50:42;25.80;66.60
22161;DHT22;49035;48.812;11.762;2023-05-07T12:53:10;25.70;61.70
22161;DHT22;49035;48.812;11.762;2023-05-07T12:55:44;25.30;65.30
22161;DHT22;49035;48.812;11.762;2023-05-07T12:58:27;25.20;64.60
22161;DHT22;49035;48.812;11.762;2023-05-07T13:00:54;25.40;61.90
22161;DHT22;49035;48.812;11.762;2023-05-07T13:03:31;25.90;63.90
22161;DHT22;49035;48.812;11.762;2023-05-07T13:06:07;26.30;63.30
22161;DHT22;49035;48.812;11.762;2023-05-07T13:08:39;25.40;59.00
22161;DHT22;49035;48.812;11.762;2023-05-07T13:11:09;25.40;65.20
22161;DHT22;49035;48.812;11.762;2023-05-07T13:13:37;24.80;63.70
22161;DHT22;49035;48.812;11.762;2023-05-07T13:16:04;25.00;67.70
22161;DHT22;49035;48.812;11.762;2023-05-07T13:18:30;25.10;59.80
22161;DHT22;49035;48.812;11.762;2023-05-07T13:20:56;25.50;64.80
22161;DHT22;49035;48.812;11.762;2023-05-07T13:23:22;26.00;67.50
22161;DHT22;49035;48.812;11.762;2023-05-07T13:25:48;26.40;64.90
22161;DHT22;49035;48.812;11.762;2023-05-07T13:28:14;25.90;60.30
22161;DHT22;49035;48.812;11.762;2023-05-07T13:30:40;25.60;62.00
22161;DHT22;49035;48.812;11.762;2023-05-07T13:33:08;25.10;62.60
22161;DHT22;49035;48.812;11.762;2023-05-07T13:35:34;25.30;64.60
22161;DHT22;49035;48.812;11.762;2023-05-07T13:38:00;25.00;64.90
22161;DHT22;49035;48.812;11.762;2023-05-07T13:40:26;24.80;67.00
22161;DHT22;49035;48.812;11.762;2023-05-07T13:42:51;25.10;65.90
22161;DHT22;49035;48.812;11.762;2023-05-07T13:45:18;25.40;69.00
22161;DHT22;49035;48.812;11.762;2023-05-07T13:47:45;25.60;66.30
22161;DHT22;49035;48.812;11.762;2023-05-07T13:50:11;25.60;60.60
22161;DHT22;49035;48.812;11.762;2023-05-07T13:52:42;25.30;65.50
22161;DHT22;49035;48.812;11.762;2023-05-07T13:55:09;25.30;65.90
22161;DHT22;49035;48.812;11.762;2023-05-07T13:57:35;25.50;64.80
22161;DHT22;49035;48.812;11.762;2023-05-07T14:00:02;25.70;64.90
22161;DHT22;49035;48.812;11.762;2023-05-07T14:02:27;25.90;64.00
22161;DHT22;49035;48.812;11.762;2023-05-07T14:04:53;26.20;63.90
22161;DHT22;49035;48.812;11.762;2023-05-07T14:07:18;26.00;60.10
22161;DHT22;49035;48.812;11.762;2023-05-07T14:09:44;25.50;64.60
22161;DHT22;49035;48.812;11.762;2023-05-07T14:12:10;26.00;61.90
22161;DHT22;49035;48.812;11.762;2023-05-07T14:14:36;26.60;58.60
22161;DHT22;49035;48.812;11.762;2023-05-07T14:17:01;27.00;58.20
22161;DHT22;49035;48.812;11.762;2023-05-07T14:19:27;27.00;59.50
22161;DHT22;49035;48.812;11.762;2023-05-07T14:21:52;27.00;60.60
22161;DHT22;49035;48.812;11.762;2023-05-07T14:24:18;26.70;56.40
22161;DHT22;49035;48.812;11.762;2023-05-07T14:26:43;26.40;58.80
22161;DHT22;49035;48.812;11.762;2023-05-07T14:29:10;26.20;59.20
22161;DHT22;49035;48.812;11.762;2023-05-07T14:31:36;26.40;58.80
22161;DHT22;49035;48.812;11.762;2023-05-07T14:34:01;26.50;57.70
22161;DHT22;49035;48.812;11.762;2023-05-07T14:36:27;26.40;57.60
22161;DHT22;49035;48.812;11.762;2023-05-07T14:38:53;26.40;59.30
22161;DHT22;49035;48.812;11.762;2023-05-07T14:41:20;26.50;59.30
22161;DHT22;49035;48.812;11.762;2023-05-07T14:43:47;26.20;57.20
22161;DHT22;49035;48.812;11.762;2023-05-07T14:46:16;25.80;56.40
22161;DHT22;49035;48.812;11.762;2023-05-07T14:48:43;25.60;59.30
22161;DHT22;49035;48.812;11.762;2023-05-07T14:51:10;25.00;57.50
22161;DHT22;49035;48.812;11.762;2023-05-07T14:53:36;24.70;59.80
22161;DHT22;49035;48.812;11.762;2023-05-07T14:56:02;24.60;59.70
22161;DHT22;49035;48.812;11.762;2023-05-07T14:58:28;25.10;60.50
22161;DHT22;49035;48.812;11.762;2023-05-07T15:00:54;25.20;57.80
22161;DHT22;49035;48.812;11.762;2023-05-07T15:03:19;24.60;60.00
22161;DHT22;49035;48.812;11.762;2023-05-07T15:05:45;24.70;60.50
22161;DHT22;49035;48.812;11.762;2023-05-07T15:08:10;24.90;60.60
22161;DHT22;49035;48.812;11.762;2023-05-07T15:10:38;25.20;60.20
22161;DHT22;49035;48.812;11.762;2023-05-07T15:13:10;25.30;58.40
22161;DHT22;49035;48.812;11.762;2023-05-07T15:15:35;24.90;60.10
22161;DHT22;49035;48.812;11.762;2023-05-07T15:18:01;24.60;59.30
22161;DHT22;49035;48.812;11.762;2023-05-07T15:20:27;24.30;60.80
22161;DHT22;49035;48.812;11.762;2023-05-07T15:22:53;24.40;62.50
22161;DHT22;49035;48.812;11.762;2023-05-07T15:25:18;24.20;59.90
22161;DHT22;49035;48.812;11.762;2023-05-07T15:27:44;24.00;59.90